Time;durP1;ratioP1;P1;durP2;ratioP2;P2;SDS_P1;SDS_P2;PMS_P1;PMS_P2;Temp;Humidity;BMP_temperature;BMP_pressure;BME280_temperature;BME280_humidity;BME280_pressure;Samples;Min_cycle;Max_cycle;Signal;HPM_P1;HPM_P2
2023/10/03 00:04:34;;;;;;;29.63;23.00;;;;;;;;;;13111383;22;20894;-87
2023/10/03 00:09:38;;;;;;;28.95;23.45;;;;;;;;;;13109106;22;20367;-87
2023/10/03 00:14:40;;;;;;;30.33;23.30;;;;;;;;;;13110948;22;20367;-88
2023/10/03 00:19:42;;;;;;;32.57;23.83;;;;;;;;;;13108753;22;20359;-87
2023/10/03 00:24:46;;;;;;;33.53;23.85;;;;;;;;;;13109445;22;20359;-87
2023/10/03 00:29:49;;;;;;;30.80;23.17;;;;;;;;;;13108917;22;21022;-87
2023/10/03 00:34:54;;;;;;;31.83;23.27;;;;;;;;;;13110429;22;20440;-86
2023/10/03 00:40:00;;;;;;;32.83;23.63;;;;;;;;;;13110286;22;20456;-87
2023/10/03 00:45:02;;;;;;;31.63;23.00;;;;;;;;;;13110015;22;20363;-87
2023/10/03 00:50:06;;;;;;;30.33;23.50;;;;;;;;;;13110389;22;20685;-87
2023/10/03 00:55:11;;;;;;;31.15;23.50;;;;;;;;;;13113341;22;20364;-87
2023/10/03 01:00:16;;;;;;;35.38;24.15;;;;;;;;;;13114294;22;20366;-87
2023/10/03 01:05:19;;;;;;;32.08;24.00;;;;;;;;;;13113427;22;20363;-88
2023/10/03 01:10:24;;;;;;;33.78;24.23;;;;;;;;;;13113061;22;20383;-87
2023/10/03 01:15:28;;;;;;;31.63;23.88;;;;;;;;;;13086712;22;20351;-86
2023/10/03 01:20:40;;;;;;;30.73;23.43;;;;;;;;;;13113426;22;20410;-87
2023/10/03 01:25:44;;;;;;;31.05;23.15;;;;;;;;;;13113058;22;20389;-88
2023/10/03 01:30:46;;;;;;;30.10;22.90;;;;;;;;;;13134778;22;20634;-87
2023/10/03 01:35:49;;;;;;;29.35;22.90;;;;;;;;;;13112531;22;20718;-85
2023/10/03 01:40:54;;;;;;;30.80;23.27;;;;;;;;;;13112323;22;20417;-84
2023/10/03 01:45:56;;;;;;;28.95;21.95;;;;;;;;;;13111497;22;20421;-85
2023/10/03 01:50:59;;;;;;;28.88;22.40;;;;;;;;;;13111484;22;20413;-84
2023/10/03 01:56:03;;;;;;;28.20;21.83;;;;;;;;;;13112207;22;20363;-85
2023/10/03 02:01:06;;;;;;;30.15;21.95;;;;;;;;;;13110551;22;20363;-85
2023/10/03 02:06:08;;;;;;;32.83;23.50;;;;;;;;;;13115346;22;20429;-85
2023/10/03 02:11:12;;;;;;;31.27;23.60;;;;;;;;;;13111727;22;20440;-86
2023/10/03 02:16:17;;;;;;;29.15;22.80;;;;;;;;;;13112575;22;20412;-85
2023/10/03 02:21:20;;;;;;;29.52;22.23;;;;;;;;;;13111028;22;20367;-86
2023/10/03 02:26:28;;;;;;;29.17;22.17;;;;;;;;;;13112516;22;20363;-85
2023/10/03 02:31:33;;;;;;;30.63;22.17;;;;;;;;;;13111087;22;20405;-85
2023/10/03 02:36:35;;;;;;;29.80;21.35;;;;;;;;;;13111085;22;20831;-85
2023/10/03 02:41:39;;;;;;;27.33;22.47;;;;;;;;;;13111232;22;20351;-85
2023/10/03 02:46:41;;;;;;;30.17;21.83;;;;;;;;;;13110432;22;20363;-85
2023/10/03 02:51:43;;;;;;;29.17;21.30;;;;;;;;;;13111067;22;20444;-85
2023/10/03 02:56:47;;;;;;;28.47;22.03;;;;;;;;;;13110423;22;20745;-86
2023/10/03 03:01:52;;;;;;;28.57;22.00;;;;;;;;;;13111383;22;20363;-86
2023/10/03 03:07:01;;;;;;;27.08;21.27;;;;;;;;;;13111293;22;20738;-85
2023/10/03 03:12:06;;;;;;;30.88;22.58;;;;;;;;;;13111092;22;20920;-85
2023/10/03 03:17:14;;;;;;;28.25;22.20;;;;;;;;;;13110977;22;20367;-86
2023/10/03 03:22:16;;;;;;;28.38;21.45;;;;;;;;;;13110402;22;20363;-86
2023/10/03 03:27:25;;;;;;;29.33;22.13;;;;;;;;;;13110085;22;20363;-86
2023/10/03 03:32:28;;;;;;;29.08;21.50;;;;;;;;;;13111167;22;20375;-86
2023/10/03 03:37:37;;;;;;;28.08;21.17;;;;;;;;;;13109752;22;20425;-87
2023/10/03 03:42:41;;;;;;;29.90;21.97;;;;;;;;;;13110998;22;20389;-87
2023/10/03 03:47:43;;;;;;;29.60;22.08;;;;;;;;;;13110003;22;20374;-86
2023/10/03 03:52:46;;;;;;;29.53;21.50;;;;;;;;;;13109784;22;20460;-85
2023/10/03 03:57:51;;;;;;;31.65;21.50;;;;;;;;;;13110614;22;20918;-85
2023/10/03 04:02:57;;;;;;;30.20;21.33;;;;;;;;;;13110098;22;20428;-86
2023/10/03 04:07:59;;;;;;;29.93;20.87;;;;;;;;;;13109698;22;20511;-85
2023/10/03 04:13:05;;;;;;;26.65;19.95;;;;;;;;;;13110084;22;20383;-86
2023/10/03 04:18:08;;;;;;;26.75;20.45;;;;;;;;;;13131490;22;20347;-85
2023/10/03 04:23:11;;;;;;;28.35;21.67;;;;;;;;;;13109160;22;20408;-86
2023/10/03 04:28:16;;;;;;;31.10;21.23;;;;;;;;;;13110745;22;20367;-86
2023/10/03 04:33:20;;;;;;;27.83;20.47;;;;;;;;;;13109985;22;20436;-86
2023/10/03 04:38:23;;;;;;;29.98;20.70;;;;;;;;;;13109652;22;20359;-86
2023/10/03 04:43:31;;;;;;;30.05;21.25;;;;;;;;;;13110189;22;20367;-85
2023/10/03 04:48:33;;;;;;;28.27;20.67;;;;;;;;;;13108490;22;20371;-86
2023/10/03 04:53:35;;;;;;;28.92;20.63;;;;;;;;;;13108577;22;20386;-86
2023/10/03 04:58:41;;;;;;;28.87;20.80;;;;;;;;;;13110840;22;20371;-87
2023/10/03 05:03:44;;;;;;;30.25;22.58;;;;;;;;;;13111146;22;20367;-87
2023/10/03 05:08:46;;;;;;;34.60;23.07;;;;;;;;;;13110557;22;20424;-87
2023/10/03 05:13:50;;;;;;;34.35;23.42;;;;;;;;;;13109546;22;20713;-87
2023/10/03 05:18:53;;;;;;;31.38;22.80;;;;;;;;;;13109178;22;20432;-88
2023/10/03 05:23:56;;;;;;;32.43;22.83;;;;;;;;;;13109091;22;20360;-88
2023/10/03 05:29:00;;;;;;;31.88;23.25;;;;;;;;;;13132209;22;20356;-88
2023/10/03 05:34:03;;;;;;;34.47;24.33;;;;;;;;;;13125682;22;20444;-88
2023/10/03 05:39:06;;;;;;;32.33;22.57;;;;;;;;;;13135919;22;20352;-88
2023/10/03 05:44:12;;;;;;;34.53;23.43;;;;;;;;;;13136777;22;20443;-87
2023/10/03 05:49:14;;;;;;;31.20;23.42;;;;;;;;;;13110494;22;20359;-88
2023/10/03 05:54:17;;;;;;;32.50;22.33;;;;;;;;;;13111776;22;20379;-87
2023/10/03 05:59:21;;;;;;;35.70;23.13;;;;;;;;;;13114593;22;20409;-87
2023/10/03 06:04:24;;;;;;;30.65;21.70;;;;;;;;;;13116562;22;20401;-87
2023/10/03 06:09:26;;;;;;;35.88;24.10;;;;;;;;;;13118513;22;20483;-87
2023/10/03 06:14:33;;;;;;;42.17;24.58;;;;;;;;;;13113144;22;20380;-86
2023/10/03 06:19:37;;;;;;;41.83;25.88;;;;;;;;;;13106938;22;20835;-85
2023/10/03 06:24:39;;;;;;;43.00;28.23;;;;;;;;;;13129455;22;20353;-86
2023/10/03 06:29:44;;;;;;;45.33;27.15;;;;;;;;;;13105943;22;20444;-86
2023/10/03 06:34:46;;;;;;;35.30;24.38;;;;;;;;;;13104858;22;20375;-86
2023/10/03 06:39:58;;;;;;;33.10;22.17;;;;;;;;;;13102446;22;20432;-86
2023/10/03 06:45:03;;;;;;;27.88;19.40;;;;;;;;;;13103086;22;20420;-87
2023/10/03 06:50:06;;;;;;;27.23;18.60;;;;;;;;;;13103899;22;20364;-86
2023/10/03 06:55:15;;;;;;;25.45;17.33;;;;;;;;;;13106000;22;20436;-85
2023/10/03 07:00:21;;;;;;;25.45;17.15;;;;;;;;;;13120654;22;20416;-86
2023/10/03 07:05:24;;;;;;;22.50;15.93;;;;;;;;;;13105816;22;20363;-86
2023/10/03 07:10:26;;;;;;;27.40;17.35;;;;;;;;;;13105851;22;20355;-86
2023/10/03 07:15:30;;;;;;;24.13;17.07;;;;;;;;;;13106965;22;20839;-86
2023/10/03 07:20:34;;;;;;;26.10;17.08;;;;;;;;;;13105831;22;20367;-86
2023/10/03 07:25:37;;;;;;;24.92;15.48;;;;;;;;;;13107054;22;20429;-86
2023/10/03 07:30:41;;;;;;;21.50;15.63;;;;;;;;;;13107844;22;20903;-85
2023/10/03 07:35:44;;;;;;;19.42;15.07;;;;;;;;;;13104668;22;20413;-86
2023/10/03 07:40:47;;;;;;;20.48;15.68;;;;;;;;;;13106820;22;20363;-86
2023/10/03 07:45:51;;;;;;;23.10;16.13;;;;;;;;;;13107322;22;20822;-86
2023/10/03 07:50:53;;;;;;;24.52;17.15;;;;;;;;;;13105021;22;20401;-85
2023/10/03 07:55:56;;;;;;;24.15;16.77;;;;;;;;;;13104505;22;20376;-87
2023/10/03 08:01:00;;;;;;;25.53;17.13;;;;;;;;;;13079193;22;20367;-86
2023/10/03 08:06:03;;;;;;;30.75;16.70;;;;;;;;;;13107597;22;20429;-86
2023/10/03 08:11:06;;;;;;;23.38;15.95;;;;;;;;;;13105516;22;20424;-85
2023/10/03 08:16:13;;;;;;;25.85;17.17;;;;;;;;;;13102421;22;20436;-87
2023/10/03 08:21:15;;;;;;;24.13;17.92;;;;;;;;;;13101409;22;20428;-86
2023/10/03 08:26:21;;;;;;;24.43;17.33;;;;;;;;;;13106978;22;20425;-87
2023/10/03 08:31:25;;;;;;;26.67;17.35;;;;;;;;;;13105718;22;20363;-86
2023/10/03 08:36:28;;;;;;;24.30;16.75;;;;;;;;;;13106060;22;20359;-86
2023/10/03 08:41:41;;;;;;;26.20;18.48;;;;;;;;;;13104225;22;20367;-86
2023/10/03 08:46:50;;;;;;;25.17;17.40;;;;;;;;;;13105623;22;20366;-86
2023/10/03 08:51:52;;;;;;;25.65;17.85;;;;;;;;;;13105365;22;20429;-86
2023/10/03 08:56:59;;;;;;;24.52;18.60;;;;;;;;;;13105293;22;20443;-87
2023/10/03 09:02:09;;;;;;;30.80;19.53;;;;;;;;;;13105131;22;20721;-86
2023/10/03 09:07:11;;;;;;;27.03;20.70;;;;;;;;;;13114365;22;20363;-86
2023/10/03 09:12:13;;;;;;;28.02;20.08;;;;;;;;;;13113092;22;20926;-86
2023/10/03 09:17:23;;;;;;;27.60;20.13;;;;;;;;;;13108628;22;20371;-86
2023/10/03 09:22:30;;;;;;;25.00;19.08;;;;;;;;;;13107780;22;20356;-86
2023/10/03 09:27:33;;;;;;;28.77;20.52;;;;;;;;;;13107746;22;20428;-86
2023/10/03 09:32:39;;;;;;;25.13;18.73;;;;;;;;;;13109079;22;20375;-85
2023/10/03 09:37:43;;;;;;;24.38;17.67;;;;;;;;;;13108143;22;20886;-87
2023/10/03 09:42:48;;;;;;;22.75;17.25;;;;;;;;;;13109513;22;20429;-86
2023/10/03 09:47:58;;;;;;;25.25;18.95;;;;;;;;;;13108250;22;20359;-86
2023/10/03 09:53:01;;;;;;;26.67;19.83;;;;;;;;;;13107298;22;20379;-86
2023/10/03 09:58:04;;;;;;;28.95;20.35;;;;;;;;;;13108400;22;20421;-86
2023/10/03 10:03:11;;;;;;;28.38;19.55;;;;;;;;;;13108578;22;20355;-86
2023/10/03 10:08:27;;;;;;;24.03;18.87;;;;;;;;;;13106377;22;20756;-86
2023/10/03 10:13:34;;;;;;;22.77;16.42;;;;;;;;;;13113369;22;20425;-86
2023/10/03 10:19:00;;;;;;;23.52;17.13;;;;;;;;;;13107473;22;20363;-86
2023/10/03 10:24:24;;;;;;;23.98;16.48;;;;;;;;;;13108051;22;20375;-86
2023/10/03 10:29:28;;;;;;;20.52;17.50;;;;;;;;;;13108238;22;20359;-86
2023/10/03 10:34:35;;;;;;;21.00;15.82;;;;;;;;;;13107769;22;20432;-86
2023/10/03 10:40:11;;;;;;;21.90;16.20;;;;;;;;;;13107755;22;20363;-86
2023/10/03 10:45:20;;;;;;;21.60;16.03;;;;;;;;;;13106840;22;20456;-86
2023/10/03 10:50:27;;;;;;;19.67;15.63;;;;;;;;;;13106693;22;20840;-86
2023/10/03 10:55:33;;;;;;;20.30;14.32;;;;;;;;;;13107276;22;20749;-86
2023/10/03 11:00:36;;;;;;;19.80;16.40;;;;;;;;;;13107823;22;20363;-86
2023/10/03 11:05:45;;;;;;;21.70;16.05;;;;;;;;;;13107363;22;20367;-86
2023/10/03 11:10:52;;;;;;;23.73;16.33;;;;;;;;;;13105598;22;20363;-86
2023/10/03 11:15:55;;;;;;;21.95;16.33;;;;;;;;;;13107105;22;20900;-86
2023/10/03 11:21:02;;;;;;;20.83;15.38;;;;;;;;;;13110045;22;21155;-87
2023/10/03 11:26:05;;;;;;;18.00;12.93;;;;;;;;;;13106699;22;20448;-87
2023/10/03 11:31:09;;;;;;;17.53;13.17;;;;;;;;;;13106130;22;20401;-86
2023/10/03 11:36:14;;;;;;;20.17;13.73;;;;;;;;;;13104850;22;20452;-86
2023/10/03 11:41:30;;;;;;;17.52;12.95;;;;;;;;;;13108028;22;20416;-86
2023/10/03 11:46:37;;;;;;;17.40;12.27;;;;;;;;;;13107586;22;20355;-87
2023/10/03 11:51:43;;;;;;;15.07;11.70;;;;;;;;;;13104780;22;20360;-86
2023/10/03 11:56:46;;;;;;;15.95;12.30;;;;;;;;;;13106834;22;20379;-86
2023/10/03 12:01:56;;;;;;;18.47;13.63;;;;;;;;;;13107727;22;20417;-86
2023/10/03 12:07:00;;;;;;;18.40;13.77;;;;;;;;;;13107483;22;20371;-86
2023/10/03 12:12:02;;;;;;;19.57;15.00;;;;;;;;;;13106261;22;20364;-86
2023/10/03 12:17:04;;;;;;;18.17;13.23;;;;;;;;;;13101309;22;20379;-85
2023/10/03 12:22:10;;;;;;;20.88;15.50;;;;;;;;;;13096169;22;20379;-87
2023/10/03 12:27:15;;;;;;;18.83;14.80;;;;;;;;;;13094993;22;20406;-86
2023/10/03 12:32:17;;;;;;;17.25;14.23;;;;;;;;;;13113825;22;20371;-87
2023/10/03 12:37:21;;;;;;;19.80;15.25;;;;;;;;;;13097199;22;21026;-86
2023/10/03 12:42:23;;;;;;;19.77;14.93;;;;;;;;;;13094633;22;20379;-87
2023/10/03 12:47:25;;;;;;;20.77;14.73;;;;;;;;;;13096748;22;20405;-86
2023/10/03 12:52:30;;;;;;;18.63;14.65;;;;;;;;;;13096302;22;20719;-86
2023/10/03 12:57:32;;;;;;;19.15;13.65;;;;;;;;;;13098062;22;20383;-87
2023/10/03 13:02:35;;;;;;;21.48;14.98;;;;;;;;;;13099699;22;20440;-86
2023/10/03 13:07:38;;;;;;;17.45;14.20;;;;;;;;;;13096417;22;20371;-86
2023/10/03 13:12:42;;;;;;;19.25;14.77;;;;;;;;;;13102142;22;20397;-86
2023/10/03 13:17:45;;;;;;;19.00;15.23;;;;;;;;;;13101852;22;20416;-87
2023/10/03 13:22:49;;;;;;;18.30;14.38;;;;;;;;;;13104278;22;20483;-86
2023/10/03 13:27:53;;;;;;;22.73;15.73;;;;;;;;;;13105596;22;20436;-87
2023/10/03 13:32:57;;;;;;;17.55;15.05;;;;;;;;;;13108225;22;20420;-88
2023/10/03 13:38:03;;;;;;;18.48;14.77;;;;;;;;;;13114792;22;20355;-86
2023/10/03 13:43:05;;;;;;;19.67;15.10;;;;;;;;;;13114592;22;20360;-86
2023/10/03 13:48:07;;;;;;;18.10;14.50;;;;;;;;;;13105863;22;20676;-86
2023/10/03 13:53:13;;;;;;;18.73;15.33;;;;;;;;;;13106012;22;20416;-87
2023/10/03 13:58:16;;;;;;;18.80;15.23;;;;;;;;;;13108631;22;20355;-88
2023/10/03 14:03:19;;;;;;;18.45;14.80;;;;;;;;;;13108579;22;20367;-86
2023/10/03 14:08:23;;;;;;;18.48;15.00;;;;;;;;;;13106273;22;20359;-85
2023/10/03 14:13:25;;;;;;;18.40;15.30;;;;;;;;;;13107534;22;20433;-87
2023/10/03 14:18:28;;;;;;;18.67;14.32;;;;;;;;;;13106046;22;20375;-85
2023/10/03 14:23:31;;;;;;;19.42;15.05;;;;;;;;;;13106385;22;20359;-87
2023/10/03 14:28:34;;;;;;;22.40;16.07;;;;;;;;;;13106322;22;20364;-87
2023/10/03 14:33:37;;;;;;;18.20;15.23;;;;;;;;;;13108441;22;20428;-86
2023/10/03 14:38:40;;;;;;;19.70;15.07;;;;;;;;;;13105964;22;20428;-87
2023/10/03 14:43:43;;;;;;;21.05;15.88;;;;;;;;;;13106285;22;20416;-87
2023/10/03 14:48:45;;;;;;;21.90;17.27;;;;;;;;;;13119953;22;20363;-88
2023/10/03 14:53:50;;;;;;;23.05;16.80;;;;;;;;;;13106658;22;20405;-87
2023/10/03 14:58:52;;;;;;;23.50;16.25;;;;;;;;;;13104844;22;20428;-86
2023/10/03 15:03:55;;;;;;;18.77;15.70;;;;;;;;;;13101806;22;21099;-87
2023/10/03 15:08:59;;;;;;;18.35;14.70;;;;;;;;;;13090302;22;20389;-88
2023/10/03 15:14:02;;;;;;;19.73;14.63;;;;;;;;;;13093627;22;20436;-87
2023/10/03 15:19:06;;;;;;;17.38;13.60;;;;;;;;;;13093630;22;21010;-87
2023/10/03 15:24:12;;;;;;;16.37;13.67;;;;;;;;;;13089585;22;20375;-87
2023/10/03 15:29:14;;;;;;;17.63;14.25;;;;;;;;;;13090860;22;20431;-87
2023/10/03 15:34:27;;;;;;;20.27;15.18;;;;;;;;;;13093406;22;20428;-86
2023/10/03 15:39:32;;;;;;;22.08;16.27;;;;;;;;;;13091281;22;20383;-87
2023/10/03 15:44:34;;;;;;;47.75;26.88;;;;;;;;;;13092595;22;20673;-86
2023/10/03 15:49:36;;;;;;;20.50;16.10;;;;;;;;;;13094186;22;20379;-87
2023/10/03 15:54:41;;;;;;;19.90;16.55;;;;;;;;;;13117378;22;20460;-87
2023/10/03 15:59:44;;;;;;;14.82;12.32;;;;;;;;;;13107674;22;20904;-87
2023/10/03 16:04:46;;;;;;;14.63;12.35;;;;;;;;;;13089131;22;20355;-87
2023/10/03 16:09:52;;;;;;;16.38;12.13;;;;;;;;;;13090920;22;20379;-87
2023/10/03 16:14:54;;;;;;;14.57;11.82;;;;;;;;;;13091750;22;20479;-87
2023/10/03 16:19:56;;;;;;;13.53;12.13;;;;;;;;;;13089695;22;20379;-87
2023/10/03 16:25:00;;;;;;;13.33;11.40;;;;;;;;;;13091396;22;20436;-86
2023/10/03 16:30:05;;;;;;;13.65;10.85;;;;;;;;;;13093125;22;20466;-85
2023/10/03 16:35:14;;;;;;;14.05;10.90;;;;;;;;;;13085997;22;21071;-87
2023/10/03 16:40:21;;;;;;;15.77;12.23;;;;;;;;;;13088030;22;20379;-86
2023/10/03 16:45:23;;;;;;;14.57;11.73;;;;;;;;;;13087807;22;20472;-84
2023/10/03 16:50:26;;;;;;;26.38;19.40;;;;;;;;;;13084573;22;20756;-87
2023/10/03 16:55:30;;;;;;;16.60;12.67;;;;;;;;;;13082458;22;20456;-87
2023/10/03 17:00:32;;;;;;;17.15;13.88;;;;;;;;;;13085491;22;20674;-87
2023/10/03 17:05:35;;;;;;;17.20;12.60;;;;;;;;;;13104431;22;20432;-87
2023/10/03 17:10:39;;;;;;;21.70;13.75;;;;;;;;;;13090901;22;20367;-89
2023/10/03 17:15:41;;;;;;;21.33;15.98;;;;;;;;;;13094255;22;20452;-87
2023/10/03 17:20:45;;;;;;;18.83;15.90;;;;;;;;;;13097998;22;20487;-89
2023/10/03 17:25:51;;;;;;;22.35;15.95;;;;;;;;;;13096492;22;20951;-94
2023/10/03 17:30:53;;;;;;;21.17;16.77;;;;;;;;;;13103051;22;20367;-91
2023/10/03 17:35:56;;;;;;;26.77;17.85;;;;;;;;;;13105521;22;20379;-90
2023/10/03 17:41:01;;;;;;;22.20;16.70;;;;;;;;;;13110395;22;20367;-91
2023/10/03 17:46:03;;;;;;;25.02;18.05;;;;;;;;;;13121167;22;20424;-90
2023/10/03 17:51:08;;;;;;;23.00;16.30;;;;;;;;;;13108755;22;20355;-91
2023/10/03 17:56:12;;;;;;;19.92;14.45;;;;;;;;;;13115038;22;20379;-92
2023/10/03 18:01:21;;;;;;;16.73;13.70;;;;;;;;;;13113913;22;20352;-86
2023/10/03 18:06:24;;;;;;;16.63;14.23;;;;;;;;;;13115497;22;20359;-78
2023/10/03 18:11:28;;;;;;;17.10;14.30;;;;;;;;;;13106878;22;20428;-87
2023/10/03 18:16:30;;;;;;;19.02;13.93;;;;;;;;;;13097661;22;21210;-87
2023/10/03 18:21:33;;;;;;;18.75;14.32;;;;;;;;;;13096296;22;20842;-88
2023/10/03 18:26:37;;;;;;;17.65;13.88;;;;;;;;;;13099037;22;20430;-87
2023/10/03 18:31:40;;;;;;;18.98;14.00;;;;;;;;;;13100175;22;20371;-87
2023/10/03 18:36:43;;;;;;;16.55;14.05;;;;;;;;;;13098782;22;20387;-87
2023/10/03 18:41:46;;;;;;;18.67;14.40;;;;;;;;;;13099840;22;20368;-87
2023/10/03 18:46:49;;;;;;;16.23;13.30;;;;;;;;;;13100277;22;20378;-87
2023/10/03 18:51:51;;;;;;;17.73;13.25;;;;;;;;;;13096140;22;20425;-87
2023/10/03 18:56:55;;;;;;;16.53;13.83;;;;;;;;;;13096750;22;20379;-87
2023/10/03 19:01:57;;;;;;;15.82;13.48;;;;;;;;;;13094077;22;20600;-87
2023/10/03 19:07:00;;;;;;;21.80;13.98;;;;;;;;;;13095627;22;21078;-87
2023/10/03 19:12:04;;;;;;;17.70;14.30;;;;;;;;;;13106285;22;20444;-86
2023/10/03 19:17:07;;;;;;;19.00;15.37;;;;;;;;;;13091065;22;20432;-86
2023/10/03 19:22:10;;;;;;;20.65;16.70;;;;;;;;;;13093126;22;20409;-87
2023/10/03 19:27:14;;;;;;;24.10;16.90;;;;;;;;;;13095741;22;20379;-87
2023/10/03 19:32:16;;;;;;;24.70;18.73;;;;;;;;;;13094597;22;20457;-85
2023/10/03 19:37:19;;;;;;;22.85;18.75;;;;;;;;;;13091953;22;20859;-87
2023/10/03 19:42:23;;;;;;;27.27;19.58;;;;;;;;;;13094303;22;20387;-85
2023/10/03 19:47:25;;;;;;;29.70;22.17;;;;;;;;;;13093753;22;20496;-86
2023/10/03 19:52:28;;;;;;;28.58;21.02;;;;;;;;;;13092045;22;20801;-85
2023/10/03 19:57:36;;;;;;;25.30;20.63;;;;;;;;;;13090970;22;20417;-84
2023/10/03 20:02:39;;;;;;;28.58;22.25;;;;;;;;;;13093786;22;20448;-86
2023/10/03 20:07:41;;;;;;;29.80;22.20;;;;;;;;;;13094070;22;20599;-86
2023/10/03 20:12:46;;;;;;;32.60;23.25;;;;;;;;;;13102622;22;20448;-87
2023/10/03 20:17:51;;;;;;;32.22;23.50;;;;;;;;;;13092824;22;20978;-86
2023/10/03 20:22:54;;;;;;;29.50;22.90;;;;;;;;;;13090966;22;20438;-87
2023/10/03 20:27:57;;;;;;;30.47;23.77;;;;;;;;;;13091257;22;20408;-87
2023/10/03 20:33:00;;;;;;;30.93;24.10;;;;;;;;;;13090575;22;20372;-86
2023/10/03 20:38:04;;;;;;;31.50;23.73;;;;;;;;;;13092878;22;20862;-86
2023/10/03 20:43:08;;;;;;;35.13;25.65;;;;;;;;;;13093477;22;20433;-86
2023/10/03 20:48:11;;;;;;;30.63;24.90;;;;;;;;;;13096009;22;20372;-87
2023/10/03 20:53:14;;;;;;;32.05;24.10;;;;;;;;;;13100489;22;20416;-88
2023/10/03 20:58:18;;;;;;;33.07;24.77;;;;;;;;;;13103411;22;20379;-87
2023/10/03 21:03:20;;;;;;;33.17;24.65;;;;;;;;;;13102902;22;20359;-89
2023/10/03 21:08:23;;;;;;;34.90;25.80;;;;;;;;;;13097794;22;20379;-88
2023/10/03 21:13:26;;;;;;;35.22;26.25;;;;;;;;;;13103220;22;20374;-89
2023/10/03 21:18:29;;;;;;;36.08;26.20;;;;;;;;;;13102818;22;20993;-88
2023/10/03 21:23:31;;;;;;;32.33;25.53;;;;;;;;;;13114896;22;20400;-87
2023/10/03 21:28:35;;;;;;;33.10;25.73;;;;;;;;;;13105694;22;20371;-88
2023/10/03 21:33:37;;;;;;;34.65;26.70;;;;;;;;;;13103526;22;20417;-87
2023/10/03 21:38:40;;;;;;;35.22;27.52;;;;;;;;;;13121558;22;20383;-88
2023/10/03 21:43:44;;;;;;;35.33;27.08;;;;;;;;;;13122430;22;20371;-88
2023/10/03 21:48:46;;;;;;;34.33;26.93;;;;;;;;;;13103800;22;20696;-88
2023/10/03 21:53:49;;;;;;;36.88;27.58;;;;;;;;;;13128070;22;20359;-88
2023/10/03 21:58:53;;;;;;;34.92;27.25;;;;;;;;;;13105457;22;20383;-89
2023/10/03 22:03:56;;;;;;;35.33;26.97;;;;;;;;;;13105084;22;20452;-88
2023/10/03 22:08:58;;;;;;;37.50;27.23;;;;;;;;;;13105760;22;20452;-89
2023/10/03 22:14:02;;;;;;;33.65;26.40;;;;;;;;;;13107718;22;20371;-87
2023/10/03 22:19:04;;;;;;;35.38;26.55;;;;;;;;;;13104563;22;20379;-86
2023/10/03 22:24:07;;;;;;;30.05;24.88;;;;;;;;;;13078274;22;20375;-88
2023/10/03 22:29:11;;;;;;;32.47;26.27;;;;;;;;;;13102748;22;20375;-87
2023/10/03 22:34:13;;;;;;;34.10;26.30;;;;;;;;;;13106540;22;20432;-89
2023/10/03 22:39:16;;;;;;;30.95;25.30;;;;;;;;;;13113286;22;20409;-87
2023/10/03 22:44:20;;;;;;;31.85;23.83;;;;;;;;;;13113183;22;20367;-87
2023/10/03 22:49:22;;;;;;;32.43;25.17;;;;;;;;;;13111830;22;20363;-87
2023/10/03 22:54:24;;;;;;;31.98;24.33;;;;;;;;;;13110451;22;20398;-87
2023/10/03 22:59:29;;;;;;;32.33;24.98;;;;;;;;;;13112170;22;20379;-88
2023/10/03 23:04:31;;;;;;;36.65;24.85;;;;;;;;;;13111733;22;20359;-87
2023/10/03 23:09:35;;;;;;;31.42;25.27;;;;;;;;;;13112514;22;20359;-87
2023/10/03 23:14:39;;;;;;;32.67;24.87;;;;;;;;;;13111681;22;20359;-86
2023/10/03 23:19:41;;;;;;;31.58;24.40;;;;;;;;;;13112349;22;20383;-87
2023/10/03 23:24:43;;;;;;;32.30;24.65;;;;;;;;;;13113278;22;20675;-87
2023/10/03 23:29:47;;;;;;;32.90;25.17;;;;;;;;;;13133819;22;20355;-87
2023/10/03 23:34:51;;;;;;;34.80;25.63;;;;;;;;;;13112148;22;20421;-87
2023/10/03 23:39:53;;;;;;;32.97;26.17;;;;;;;;;;13112228;22;20432;-86
2023/10/03 23:44:57;;;;;;;32.65;24.75;;;;;;;;;;13111031;22;20371;-87
2023/10/03 23:49:59;;;;;;;35.13;25.77;;;;;;;;;;13111102;22;20433;-88
2023/10/03 23:55:12;;;;;;;35.93;26.50;;;;;;;;;;13111818;22;20359;-87
